sensor_id;sensor_type;location;lat;lon;timestamp;pressure;altitude;pressure_sealevel;temperature;humidity
62864;BME280;48954;59.950;11.014;2023-01-19T00:00:33;97683.81;;;-0.60;90.56
62864;BME280;48954;59.950;11.014;2023-01-19T00:03:16;97683.52;;;-0.59;90.87
62864;BME280;48954;59.950;11.014;2023-01-19T00:06:11;97686.52;;;-0.60;90.54
62864;BME280;48954;59.950;11.014;2023-01-19T00:09:28;97687.74;;;-0.60;90.54
62864;BME280;48954;59.950;11.014;2023-01-19T00:12:43;97691.32;;;-0.61;90.59
62864;BME280;48954;59.950;11.014;2023-01-19T00:15:29;97694.55;;;-0.61;90.52
62864;BME280;48954;59.950;11.014;2023-01-19T00:17:56;97697.57;;;-0.61;90.58
62864;BME280;48954;59.950;11.014;2023-01-19T00:20:38;97697.20;;;-0.60;90.73
62864;BME280;48954;59.950;11.014;2023-01-19T00:23:24;97694.33;;;-0.61;90.52
62864;BME280;48954;59.950;11.014;2023-01-19T00:26:06;97693.23;;;-0.62;90.56
62864;BME280;48954;59.950;11.014;2023-01-19T00:29:06;97689.69;;;-0.64;90.28
62864;BME280;48954;59.950;11.014;2023-01-19T00:31:46;97691.62;;;-0.66;90.32
62864;BME280;48954;59.950;11.014;2023-01-19T00:34:30;97691.16;;;-0.69;90.39
62864;BME280;48954;59.950;11.014;2023-01-19T00:37:13;97689.73;;;-0.69;90.29
62864;BME280;48954;59.950;11.014;2023-01-19T00:39:53;97692.64;;;-0.70;90.36
62864;BME280;48954;59.950;11.014;2023-01-19T00:42:34;97695.38;;;-0.72;90.43
62864;BME280;48954;59.950;11.014;2023-01-19T00:45:23;97697.63;;;-0.71;90.47
62864;BME280;48954;59.950;11.014;2023-01-19T00:47:52;97697.23;;;-0.72;90.42
62864;BME280;48954;59.950;11.014;2023-01-19T00:50:33;97697.38;;;-0.74;90.41
62864;BME280;48954;59.950;11.014;2023-01-19T00:53:30;97696.27;;;-0.78;90.38
62864;BME280;48954;59.950;11.014;2023-01-19T00:56:11;97700.18;;;-0.80;90.18
62864;BME280;48954;59.950;11.014;2023-01-19T00:58:37;97701.11;;;-0.81;90.40
62864;BME280;48954;59.950;11.014;2023-01-19T01:01:17;97706.25;;;-0.79;90.31
62864;BME280;48954;59.950;11.014;2023-01-19T01:03:48;97704.02;;;-0.79;90.30
62864;BME280;48954;59.950;11.014;2023-01-19T01:06:28;97701.89;;;-0.78;90.12
62864;BME280;48954;59.950;11.014;2023-01-19T01:09:09;97707.58;;;-0.76;90.25
62864;BME280;48954;59.950;11.014;2023-01-19T01:11:41;97707.11;;;-0.74;90.28
62864;BME280;48954;59.950;11.014;2023-01-19T01:14:10;97707.41;;;-0.72;90.47
62864;BME280;48954;59.950;11.014;2023-01-19T01:16:46;97711.36;;;-0.69;90.36
62864;BME280;48954;59.950;11.014;2023-01-19T01:19:12;97711.15;;;-0.66;90.44
62864;BME280;48954;59.950;11.014;2023-01-19T01:21:53;97716.43;;;-0.65;90.35
62864;BME280;48954;59.950;11.014;2023-01-19T01:24:24;97715.52;;;-0.64;90.33
62864;BME280;48954;59.950;11.014;2023-01-19T01:26:54;97724.40;;;-0.63;90.36
62864;BME280;48954;59.950;11.014;2023-01-19T01:29:35;97725.45;;;-0.62;90.39
62864;BME280;48954;59.950;11.014;2023-01-19T01:32:15;97729.83;;;-0.63;90.13
62864;BME280;48954;59.950;11.014;2023-01-19T01:34:41;97730.33;;;-0.64;90.34
62864;BME280;48954;59.950;11.014;2023-01-19T01:37:16;97733.02;;;-0.65;90.30
62864;BME280;48954;59.950;11.014;2023-01-19T01:39:57;97734.37;;;-0.66;90.35
62864;BME280;48954;59.950;11.014;2023-01-19T01:42:28;97731.10;;;-0.67;90.22
62864;BME280;48954;59.950;11.014;2023-01-19T01:45:02;97728.72;;;-0.67;90.33
62864;BME280;48954;59.950;11.014;2023-01-19T01:47:44;97724.17;;;-0.66;90.20
62864;BME280;48954;59.950;11.014;2023-01-19T01:50:28;97725.21;;;-0.65;90.25
62864;BME280;48954;59.950;11.014;2023-01-19T01:53:10;97724.67;;;-0.65;90.31
62864;BME280;48954;59.950;11.014;2023-01-19T01:55:45;97723.52;;;-0.65;90.35
62864;BME280;48954;59.950;11.014;2023-01-19T01:58:27;97725.70;;;-0.64;90.43
62864;BME280;48954;59.950;11.014;2023-01-19T02:01:08;97727.80;;;-0.63;90.43
62864;BME280;48954;59.950;11.014;2023-01-19T02:03:35;97726.88;;;-0.63;90.33
62864;BME280;48954;59.950;11.014;2023-01-19T02:06:09;97731.28;;;-0.63;90.36
62864;BME280;48954;59.950;11.014;2023-01-19T02:09:04;97730.34;;;-0.63;90.17
62864;BME280;48954;59.950;11.014;2023-01-19T02:11:34;97734.02;;;-0.65;90.23
62864;BME280;48954;59.950;11.014;2023-01-19T02:14:03;97736.41;;;-0.65;90.28
62864;BME280;48954;59.950;11.014;2023-01-19T02:16:29;97734.86;;;-0.64;90.04
62864;BME280;48954;59.950;11.014;2023-01-19T02:18:56;97734.02;;;-0.65;90.48
62864;BME280;48954;59.950;11.014;2023-01-19T02:21:30;97733.17;;;-0.65;90.41
62864;BME280;48954;59.950;11.014;2023-01-19T02:24:15;97735.92;;;-0.66;90.19
62864;BME280;48954;59.950;11.014;2023-01-19T02:26:43;97734.89;;;-0.67;90.36
62864;BME280;48954;59.950;11.014;2023-01-19T02:29:15;97734.29;;;-0.68;90.16
62864;BME280;48954;59.950;11.014;2023-01-19T02:31:56;97736.84;;;-0.70;90.01
62864;BME280;48954;59.950;11.014;2023-01-19T02:34:37;97734.57;;;-0.71;90.21
62864;BME280;48954;59.950;11.014;2023-01-19T02:37:11;97735.23;;;-0.72;90.24
62864;BME280;48954;59.950;11.014;2023-01-19T02:39:56;97741.69;;;-0.73;90.17
62864;BME280;48954;59.950;11.014;2023-01-19T02:42:31;97743.77;;;-0.73;90.27
62864;BME280;48954;59.950;11.014;2023-01-19T02:45:20;97746.01;;;-0.73;90.25
62864;BME280;48954;59.950;11.014;2023-01-19T02:47:50;97746.61;;;-0.73;90.12
62864;BME280;48954;59.950;11.014;2023-01-19T02:59:34;97747.64;;;-0.70;90.33
62864;BME280;48954;59.950;11.014;2023-01-19T03:05:28;97745.29;;;-0.69;90.11
62864;BME280;48954;59.950;11.014;2023-01-19T03:11:09;97753.67;;;-0.70;90.25
62864;BME280;48954;59.950;11.014;2023-01-19T03:13:53;97756.56;;;-0.69;90.22
62864;BME280;48954;59.950;11.014;2023-01-19T03:16:46;97760.98;;;-0.68;90.34
62864;BME280;48954;59.950;11.014;2023-01-19T03:19:31;97758.60;;;-0.70;90.22
62864;BME280;48954;59.950;11.014;2023-01-19T03:22:18;97762.85;;;-0.70;90.48
62864;BME280;48954;59.950;11.014;2023-01-19T03:24:49;97764.44;;;-0.69;90.30
62864;BME280;48954;59.950;11.014;2023-01-19T03:27:34;97764.20;;;-0.67;90.55
62864;BME280;48954;59.950;11.014;2023-01-19T03:30:21;97763.52;;;-0.66;90.31
62864;BME280;48954;59.950;11.014;2023-01-19T03:33:10;97766.92;;;-0.66;90.26
62864;BME280;48954;59.950;11.014;2023-01-19T03:35:47;97766.67;;;-0.66;90.59
62864;BME280;48954;59.950;11.014;2023-01-19T03:38:32;97769.81;;;-0.67;90.55
62864;BME280;48954;59.950;11.014;2023-01-19T03:41:07;97772.63;;;-0.66;90.55
62864;BME280;48954;59.950;11.014;2023-01-19T03:43:39;97775.34;;;-0.66;90.23
62864;BME280;48954;59.950;11.014;2023-01-19T03:46:07;97772.64;;;-0.66;90.28
62864;BME280;48954;59.950;11.014;2023-01-19T03:48:36;97772.77;;;-0.66;90.23
62864;BME280;48954;59.950;11.014;2023-01-19T03:51:06;97771.34;;;-0.67;90.46
62864;BME280;48954;59.950;11.014;2023-01-19T03:53:36;97770.94;;;-0.68;90.22
62864;BME280;48954;59.950;11.014;2023-01-19T03:56:16;97771.20;;;-0.69;90.20
62864;BME280;48954;59.950;11.014;2023-01-19T03:58:44;97778.55;;;-0.71;90.42
62864;BME280;48954;59.950;11.014;2023-01-19T04:01:14;97779.96;;;-0.73;90.23
62864;BME280;48954;59.950;11.014;2023-01-19T04:03:41;97782.09;;;-0.73;90.28
62864;BME280;48954;59.950;11.014;2023-01-19T04:06:13;97780.56;;;-0.73;90.27
62864;BME280;48954;59.950;11.014;2023-01-19T04:08:40;97781.42;;;-0.73;90.49
62864;BME280;48954;59.950;11.014;2023-01-19T04:11:10;97782.52;;;-0.72;90.57
62864;BME280;48954;59.950;11.014;2023-01-19T04:13:38;97785.97;;;-0.73;90.58
62864;BME280;48954;59.950;11.014;2023-01-19T04:16:04;97784.31;;;-0.74;90.41
62864;BME280;48954;59.950;11.014;2023-01-19T04:18:32;97786.30;;;-0.75;90.51
62864;BME280;48954;59.950;11.014;2023-01-19T04:21:03;97790.88;;;-0.76;90.61
62864;BME280;48954;59.950;11.014;2023-01-19T04:23:32;97789.27;;;-0.75;90.42
62864;BME280;48954;59.950;11.014;2023-01-19T04:26:02;97787.86;;;-0.76;90.64
62864;BME280;48954;59.950;11.014;2023-01-19T04:28:30;97782.59;;;-0.76;90.47
62864;BME280;48954;59.950;11.014;2023-01-19T04:30:58;97785.45;;;-0.76;90.35
62864;BME280;48954;59.950;11.014;2023-01-19T04:33:26;97785.98;;;-0.76;90.53
62864;BME280;48954;59.950;11.014;2023-01-19T04:35:53;97790.48;;;-0.76;90.98
62864;BME280;48954;59.950;11.014;2023-01-19T04:38:20;97784.17;;;-0.78;90.59
62864;BME280;48954;59.950;11.014;2023-01-19T04:40:47;97788.64;;;-0.78;90.58
62864;BME280;48954;59.950;11.014;2023-01-19T04:43:15;97783.16;;;-0.78;90.61
62864;BME280;48954;59.950;11.014;2023-01-19T04:45:41;97783.72;;;-0.77;90.60
62864;BME280;48954;59.950;11.014;2023-01-19T04:48:08;97784.13;;;-0.77;90.59
62864;BME280;48954;59.950;11.014;2023-01-19T04:50:36;97787.73;;;-0.77;90.54
62864;BME280;48954;59.950;11.014;2023-01-19T04:53:05;97793.98;;;-0.77;90.56
62864;BME280;48954;59.950;11.014;2023-01-19T04:55:33;97794.29;;;-0.77;90.66
62864;BME280;48954;59.950;11.014;2023-01-19T04:58:00;97794.67;;;-0.77;90.64
62864;BME280;48954;59.950;11.014;2023-01-19T05:00:28;97792.77;;;-0.77;90.83
62864;BME280;48954;59.950;11.014;2023-01-19T05:02:54;97793.61;;;-0.77;90.60
62864;BME280;48954;59.950;11.014;2023-01-19T05:05:35;97791.21;;;-0.77;90.89
62864;BME280;48954;59.950;11.014;2023-01-19T05:08:03;97792.47;;;-0.76;91.04
62864;BME280;48954;59.950;11.014;2023-01-19T05:10:31;97792.45;;;-0.77;90.78
62864;BME280;48954;59.950;11.014;2023-01-19T05:13:01;97786.96;;;-0.77;90.70
62864;BME280;48954;59.950;11.014;2023-01-19T05:15:28;97788.21;;;-0.77;90.67
62864;BME280;48954;59.950;11.014;2023-01-19T05:17:57;97784.71;;;-0.75;90.66
62864;BME280;48954;59.950;11.014;2023-01-19T05:20:27;97787.07;;;-0.76;90.79
62864;BME280;48954;59.950;11.014;2023-01-19T05:23:07;97791.36;;;-0.77;90.85
62864;BME280;48954;59.950;11.014;2023-01-19T05:25:34;97791.40;;;-0.79;91.02
62864;BME280;48954;59.950;11.014;2023-01-19T05:28:02;97793.00;;;-0.79;90.56
62864;BME280;48954;59.950;11.014;2023-01-19T05:30:38;97793.19;;;-0.80;90.78
62864;BME280;48954;59.950;11.014;2023-01-19T05:33:07;97794.43;;;-0.80;90.76
62864;BME280;48954;59.950;11.014;2023-01-19T05:36:08;97797.54;;;-0.80;91.05
62864;BME280;48954;59.950;11.014;2023-01-19T05:38:34;97800.34;;;-0.79;90.84
62864;BME280;48954;59.950;11.014;2023-01-19T05:41:03;97798.33;;;-0.79;90.86
62864;BME280;48954;59.950;11.014;2023-01-19T05:43:57;97800.98;;;-0.81;90.99
62864;BME280;48954;59.950;11.014;2023-01-19T05:46:25;97799.15;;;-0.82;90.68
62864;BME280;48954;59.950;11.014;2023-01-19T05:48:51;97800.82;;;-0.81;90.64
62864;BME280;48954;59.950;11.014;2023-01-19T05:51:18;97804.30;;;-0.80;90.77
62864;BME280;48954;59.950;11.014;2023-01-19T05:53:44;97803.61;;;-0.80;90.89
62864;BME280;48954;59.950;11.014;2023-01-19T05:56:14;97806.27;;;-0.79;91.03
62864;BME280;48954;59.950;11.014;2023-01-19T05:58:40;97806.14;;;-0.78;90.99
62864;BME280;48954;59.950;11.014;2023-01-19T06:01:15;97805.73;;;-0.79;90.87
62864;BME280;48954;59.950;11.014;2023-01-19T06:03:43;97805.14;;;-0.80;90.98
62864;BME280;48954;59.950;11.014;2023-01-19T06:06:11;97809.05;;;-0.81;90.92
62864;BME280;48954;59.950;11.014;2023-01-19T06:08:38;97811.63;;;-0.82;91.05
62864;BME280;48954;59.950;11.014;2023-01-19T06:11:05;97813.31;;;-0.83;90.93
62864;BME280;48954;59.950;11.014;2023-01-19T06:13:31;97814.13;;;-0.81;91.02
62864;BME280;48954;59.950;11.014;2023-01-19T06:16:03;97814.64;;;-0.80;91.14
62864;BME280;48954;59.950;11.014;2023-01-19T06:18:31;97814.70;;;-0.81;91.12
62864;BME280;48954;59.950;11.014;2023-01-19T06:21:13;97816.70;;;-0.81;90.92
62864;BME280;48954;59.950;11.014;2023-01-19T06:23:40;97815.59;;;-0.82;90.89
62864;BME280;48954;59.950;11.014;2023-01-19T06:26:10;97824.08;;;-0.83;91.00
62864;BME280;48954;59.950;11.014;2023-01-19T06:28:36;97827.27;;;-0.85;90.99
62864;BME280;48954;59.950;11.014;2023-01-19T06:31:02;97829.65;;;-0.85;91.14
62864;BME280;48954;59.950;11.014;2023-01-19T06:33:30;97828.41;;;-0.85;91.15
62864;BME280;48954;59.950;11.014;2023-01-19T06:36:00;97832.06;;;-0.84;91.14
62864;BME280;48954;59.950;11.014;2023-01-19T06:38:28;97836.81;;;-0.83;91.01
62864;BME280;48954;59.950;11.014;2023-01-19T06:40:56;97847.29;;;-0.83;91.10
62864;BME280;48954;59.950;11.014;2023-01-19T06:43:27;97852.51;;;-0.84;91.15
62864;BME280;48954;59.950;11.014;2023-01-19T06:46:25;97851.58;;;-0.84;91.07
62864;BME280;48954;59.950;11.014;2023-01-19T06:48:53;97853.14;;;-0.84;91.10
62864;BME280;48954;59.950;11.014;2023-01-19T06:51:33;97858.16;;;-0.84;90.94
62864;BME280;48954;59.950;11.014;2023-01-19T06:54:03;97858.58;;;-0.85;91.05
62864;BME280;48954;59.950;11.014;2023-01-19T06:56:32;97855.30;;;-0.85;90.99
62864;BME280;48954;59.950;11.014;2023-01-19T06:59:13;97860.88;;;-0.87;91.10
62864;BME280;48954;59.950;11.014;2023-01-19T07:01:44;97860.18;;;-0.87;91.02
62864;BME280;48954;59.950;11.014;2023-01-19T07:04:11;97859.77;;;-0.88;90.99
62864;BME280;48954;59.950;11.014;2023-01-19T07:06:51;97861.00;;;-0.88;90.87
62864;BME280;48954;59.950;11.014;2023-01-19T07:09:24;97867.52;;;-0.89;90.92
62864;BME280;48954;59.950;11.014;2023-01-19T07:12:02;97869.98;;;-0.88;90.96
62864;BME280;48954;59.950;11.014;2023-01-19T07:14:29;97871.96;;;-0.87;91.30
62864;BME280;48954;59.950;11.014;2023-01-19T07:16:56;97875.98;;;-0.85;91.26
62864;BME280;48954;59.950;11.014;2023-01-19T07:19:23;97883.48;;;-0.83;91.28
62864;BME280;48954;59.950;11.014;2023-01-19T07:21:50;97885.42;;;-0.81;91.23
62864;BME280;48954;59.950;11.014;2023-01-19T07:24:17;97888.10;;;-0.79;91.33
62864;BME280;48954;59.950;11.014;2023-01-19T07:26:55;97888.54;;;-0.77;91.03
62864;BME280;48954;59.950;11.014;2023-01-19T07:29:37;97893.36;;;-0.76;90.91
62864;BME280;48954;59.950;11.014;2023-01-19T07:32:06;97894.60;;;-0.76;91.05
62864;BME280;48954;59.950;11.014;2023-01-19T07:34:36;97897.33;;;-0.75;91.12
62864;BME280;48954;59.950;11.014;2023-01-19T07:37:15;97903.67;;;-0.75;91.26
62864;BME280;48954;59.950;11.014;2023-01-19T07:39:57;97910.44;;;-0.75;91.10
62864;BME280;48954;59.950;11.014;2023-01-19T07:42:46;97912.50;;;-0.76;91.01
62864;BME280;48954;59.950;11.014;2023-01-19T07:45:16;97915.16;;;-0.77;91.05
62864;BME280;48954;59.950;11.014;2023-01-19T07:47:43;97916.91;;;-0.77;90.87
62864;BME280;48954;59.950;11.014;2023-01-19T07:50:16;97921.73;;;-0.79;91.07
62864;BME280;48954;59.950;11.014;2023-01-19T07:52:43;97927.13;;;-0.79;91.04
62864;BME280;48954;59.950;11.014;2023-01-19T07:55:11;97924.74;;;-0.79;91.06
62864;BME280;48954;59.950;11.014;2023-01-19T07:57:52;97930.69;;;-0.79;91.38
62864;BME280;48954;59.950;11.014;2023-01-19T08:00:20;97935.61;;;-0.79;91.03
62864;BME280;48954;59.950;11.014;2023-01-19T08:02:58;97935.98;;;-0.79;91.21
62864;BME280;48954;59.950;11.014;2023-01-19T08:05:27;97939.94;;;-0.81;91.03
62864;BME280;48954;59.950;11.014;2023-01-19T08:07:56;97947.50;;;-0.82;91.10
62864;BME280;48954;59.950;11.014;2023-01-19T08:10:27;97948.70;;;-0.83;91.05
62864;BME280;48954;59.950;11.014;2023-01-19T08:12:57;97953.05;;;-0.82;91.23
62864;BME280;48954;59.950;11.014;2023-01-19T08:15:25;97955.21;;;-0.82;91.03
62864;BME280;48954;59.950;11.014;2023-01-19T08:18:03;97956.88;;;-0.83;91.29
62864;BME280;48954;59.950;11.014;2023-01-19T08:21:00;97965.31;;;-0.81;91.28
62864;BME280;48954;59.950;11.014;2023-01-19T08:23:41;97970.70;;;-0.79;91.12
62864;BME280;48954;59.950;11.014;2023-01-19T08:26:33;97971.23;;;-0.76;91.10
62864;BME280;48954;59.950;11.014;2023-01-19T08:29:04;97975.64;;;-0.76;91.27
62864;BME280;48954;59.950;11.014;2023-01-19T08:31:32;97979.70;;;-0.77;91.03
62864;BME280;48954;59.950;11.014;2023-01-19T08:34:12;97979.10;;;-0.76;90.95
62864;BME280;48954;59.950;11.014;2023-01-19T08:36:40;97984.38;;;-0.76;90.83
62864;BME280;48954;59.950;11.014;2023-01-19T08:39:21;97986.70;;;-0.76;91.04
62864;BME280;48954;59.950;11.014;2023-01-19T08:41:49;97993.67;;;-0.74;91.09
62864;BME280;48954;59.950;11.014;2023-01-19T08:44:29;97993.75;;;-0.75;90.77
62864;BME280;48954;59.950;11.014;2023-01-19T08:47:10;97996.86;;;-0.75;90.97
62864;BME280;48954;59.950;11.014;2023-01-19T08:49:39;97993.39;;;-0.74;90.83
62864;BME280;48954;59.950;11.014;2023-01-19T08:52:07;97999.30;;;-0.75;90.75
62864;BME280;48954;59.950;11.014;2023-01-19T08:54:47;98001.38;;;-0.77;90.49
62864;BME280;48954;59.950;11.014;2023-01-19T08:57:27;98004.91;;;-0.77;90.61
62864;BME280;48954;59.950;11.014;2023-01-19T08:59:56;98006.23;;;-0.77;90.59
62864;BME280;48954;59.950;11.014;2023-01-19T09:02:25;98009.25;;;-0.77;90.45
62864;BME280;48954;59.950;11.014;2023-01-19T09:04:55;98017.05;;;-0.75;90.63
62864;BME280;48954;59.950;11.014;2023-01-19T09:07:36;98016.99;;;-0.76;90.48
62864;BME280;48954;59.950;11.014;2023-01-19T09:10:17;98019.85;;;-0.76;90.62
62864;BME280;48954;59.950;11.014;2023-01-19T09:12:57;98020.13;;;-0.75;90.44
62864;BME280;48954;59.950;11.014;2023-01-19T09:15:26;98022.50;;;-0.71;90.45
62864;BME280;48954;59.950;11.014;2023-01-19T09:18:00;98022.61;;;-0.68;90.66
62864;BME280;48954;59.950;11.014;2023-01-19T09:20:31;98024.64;;;-0.67;90.66
62864;BME280;48954;59.950;11.014;2023-01-19T09:23:01;98023.11;;;-0.66;90.43
62864;BME280;48954;59.950;11.014;2023-01-19T09:25:36;98028.19;;;-0.63;90.63
62864;BME280;48954;59.950;11.014;2023-01-19T09:28:05;98027.68;;;-0.62;90.59
62864;BME280;48954;59.950;11.014;2023-01-19T09:30:45;98026.52;;;-0.61;90.43
62864;BME280;48954;59.950;11.014;2023-01-19T09:33:14;98027.50;;;-0.59;90.33
62864;BME280;48954;59.950;11.014;2023-01-19T09:35:45;98032.45;;;-0.57;90.43
62864;BME280;48954;59.950;11.014;2023-01-19T09:38:26;98039.84;;;-0.54;90.35
62864;BME280;48954;59.950;11.014;2023-01-19T09:41:15;98042.50;;;-0.50;90.33
62864;BME280;48954;59.950;11.014;2023-01-19T09:43:52;98041.09;;;-0.49;90.33
62864;BME280;48954;59.950;11.014;2023-01-19T09:46:26;98046.04;;;-0.48;90.14
62864;BME280;48954;59.950;11.014;2023-01-19T09:48:57;98047.16;;;-0.48;90.11
62864;BME280;48954;59.950;11.014;2023-01-19T09:51:38;98049.37;;;-0.46;90.08
62864;BME280;48954;59.950;11.014;2023-01-19T09:54:18;98050.02;;;-0.44;90.23
62864;BME280;48954;59.950;11.014;2023-01-19T09:56:52;98056.68;;;-0.41;90.02
62864;BME280;48954;59.950;11.014;2023-01-19T09:59:34;98063.31;;;-0.39;89.93
62864;BME280;48954;59.950;11.014;2023-01-19T10:10:55;98076.70;;;-0.38;89.75
62864;BME280;48954;59.950;11.014;2023-01-19T10:13:48;98081.63;;;-0.38;89.88
62864;BME280;48954;59.950;11.014;2023-01-19T10:17:23;98083.39;;;-0.37;89.95
62864;BME280;48954;59.950;11.014;2023-01-19T10:20:13;98085.87;;;-0.36;89.69
62864;BME280;48954;59.950;11.014;2023-01-19T10:22:47;98083.59;;;-0.38;89.64
62864;BME280;48954;59.950;11.014;2023-01-19T10:25:19;98088.98;;;-0.36;89.66
62864;BME280;48954;59.950;11.014;2023-01-19T10:27:46;98088.52;;;-0.36;89.43
62864;BME280;48954;59.950;11.014;2023-01-19T10:30:18;98089.63;;;-0.37;89.58
62864;BME280;48954;59.950;11.014;2023-01-19T10:32:46;98088.76;;;-0.35;89.44
62864;BME280;48954;59.950;11.014;2023-01-19T10:35:28;98088.33;;;-0.32;89.56
62864;BME280;48954;59.950;11.014;2023-01-19T10:37:59;98090.17;;;-0.31;89.56
62864;BME280;48954;59.950;11.014;2023-01-19T10:40:50;98090.83;;;-0.30;89.32
62864;BME280;48954;59.950;11.014;2023-01-19T10:46:05;98096.05;;;-0.26;89.61
62864;BME280;48954;59.950;11.014;2023-01-19T10:48:39;98103.48;;;-0.26;89.41
62864;BME280;48954;59.950;11.014;2023-01-19T10:51:09;98102.63;;;-0.26;89.31
62864;BME280;48954;59.950;11.014;2023-01-19T10:53:43;98111.34;;;-0.26;89.22
62864;BME280;48954;59.950;11.014;2023-01-19T10:56:23;98110.41;;;-0.26;89.48
62864;BME280;48954;59.950;11.014;2023-01-19T10:58:50;98113.19;;;-0.24;89.21
62864;BME280;48954;59.950;11.014;2023-01-19T11:01:23;98114.64;;;-0.24;89.34
62864;BME280;48954;59.950;11.014;2023-01-19T11:03:51;98117.58;;;-0.24;89.27
62864;BME280;48954;59.950;11.014;2023-01-19T11:06:24;98116.11;;;-0.24;89.21
62864;BME280;48954;59.950;11.014;2023-01-19T11:08:52;98117.86;;;-0.25;89.32
62864;BME280;48954;59.950;11.014;2023-01-19T11:11:20;98123.72;;;-0.25;89.24
62864;BME280;48954;59.950;11.014;2023-01-19T11:14:02;98125.86;;;-0.26;89.29
62864;BME280;48954;59.950;11.014;2023-01-19T11:16:33;98123.23;;;-0.25;88.96
62864;BME280;48954;59.950;11.014;2023-01-19T11:19:01;98127.89;;;-0.25;89.35
62864;BME280;48954;59.950;11.014;2023-01-19T11:21:29;98127.23;;;-0.24;89.16
62864;BME280;48954;59.950;11.014;2023-01-19T11:23:58;98129.53;;;-0.25;88.96
62864;BME280;48954;59.950;11.014;2023-01-19T11:26:33;98129.77;;;-0.24;89.24
62864;BME280;48954;59.950;11.014;2023-01-19T11:29:04;98130.81;;;-0.26;89.08
62864;BME280;48954;59.950;11.014;2023-01-19T11:31:33;98134.11;;;-0.27;88.86
62864;BME280;48954;59.950;11.014;2023-01-19T11:34:19;98143.97;;;-0.27;88.89
62864;BME280;48954;59.950;11.014;2023-01-19T11:37:02;98142.77;;;-0.28;88.88
62864;BME280;48954;59.950;11.014;2023-01-19T11:39:31;98144.54;;;-0.28;88.93
62864;BME280;48954;59.950;11.014;2023-01-19T11:42:04;98146.98;;;-0.27;89.01
62864;BME280;48954;59.950;11.014;2023-01-19T11:47:25;98145.60;;;-0.22;88.90
62864;BME280;48954;59.950;11.014;2023-01-19T11:50:20;98144.77;;;-0.22;88.60
62864;BME280;48954;59.950;11.014;2023-01-19T11:52:50;98152.48;;;-0.22;88.63
62864;BME280;48954;59.950;11.014;2023-01-19T11:55:46;98153.23;;;-0.21;88.59
62864;BME280;48954;59.950;11.014;2023-01-19T11:58:16;98155.58;;;-0.18;88.74
62864;BME280;48954;59.950;11.014;2023-01-19T12:00:45;98154.83;;;-0.16;88.86
62864;BME280;48954;59.950;11.014;2023-01-19T12:03:36;98158.58;;;-0.12;88.64
62864;BME280;48954;59.950;11.014;2023-01-19T12:06:11;98160.08;;;-0.09;88.75
62864;BME280;48954;59.950;11.014;2023-01-19T12:08:42;98161.40;;;-0.07;88.57
62864;BME280;48954;59.950;11.014;2023-01-19T12:11:15;98163.83;;;-0.07;88.62
62864;BME280;48954;59.950;11.014;2023-01-19T12:13:44;98166.93;;;-0.06;88.49
62864;BME280;48954;59.950;11.014;2023-01-19T12:16:17;98171.58;;;-0.06;88.36
62864;BME280;48954;59.950;11.014;2023-01-19T12:18:52;98167.65;;;-0.05;88.38
62864;BME280;48954;59.950;11.014;2023-01-19T12:21:21;98170.77;;;-0.06;88.15
62864;BME280;48954;59.950;11.014;2023-01-19T12:23:55;98173.81;;;-0.10;88.29
62864;BME280;48954;59.950;11.014;2023-01-19T12:26:27;98176.18;;;-0.12;88.22
62864;BME280;48954;59.950;11.014;2023-01-19T12:29:03;98177.55;;;-0.15;87.80
62864;BME280;48954;59.950;11.014;2023-01-19T12:31:31;98180.96;;;-0.17;88.04
62864;BME280;48954;59.950;11.014;2023-01-19T12:34:27;98184.13;;;-0.21;88.13
62864;BME280;48954;59.950;11.014;2023-01-19T12:36:54;98184.58;;;-0.24;88.02
62864;BME280;48954;59.950;11.014;2023-01-19T12:39:23;98180.73;;;-0.26;88.10
62864;BME280;48954;59.950;11.014;2023-01-19T12:42:26;98177.44;;;-0.30;88.00
62864;BME280;48954;59.950;11.014;2023-01-19T12:47:30;98185.35;;;-0.38;87.87
62864;BME280;48954;59.950;11.014;2023-01-19T12:49:57;98188.90;;;-0.39;88.08
62864;BME280;48954;59.950;11.014;2023-01-19T12:52:39;98189.73;;;-0.39;87.88
62864;BME280;48954;59.950;11.014;2023-01-19T12:57:46;98195.39;;;-0.41;88.06
62864;BME280;48954;59.950;11.014;2023-01-19T13:03:01;98197.91;;;-0.43;88.30
62864;BME280;48954;59.950;11.014;2023-01-19T13:21:34;98213.66;;;-0.54;87.77
62864;BME280;48954;59.950;11.014;2023-01-19T13:29:35;98223.77;;;-0.63;87.70
62864;BME280;48954;59.950;11.014;2023-01-19T13:32:16;98222.59;;;-0.66;87.91
62864;BME280;48954;59.950;11.014;2023-01-19T13:34:46;98228.98;;;-0.68;87.85
62864;BME280;48954;59.950;11.014;2023-01-19T13:37:18;98231.08;;;-0.69;87.97
62864;BME280;48954;59.950;11.014;2023-01-19T13:39:46;98232.40;;;-0.77;87.68
62864;BME280;48954;59.950;11.014;2023-01-19T13:44:47;98234.66;;;-0.83;88.04
62864;BME280;48954;59.950;11.014;2023-01-19T13:47:21;98235.15;;;-0.84;88.03
62864;BME280;48954;59.950;11.014;2023-01-19T13:49:57;98239.11;;;-0.85;88.20
62864;BME280;48954;59.950;11.014;2023-01-19T13:52:25;98240.06;;;-0.86;87.96
62864;BME280;48954;59.950;11.014;2023-01-19T13:54:54;98242.42;;;-0.87;88.12
62864;BME280;48954;59.950;11.014;2023-01-19T14:03:15;98251.30;;;-0.94;87.81
62864;BME280;48954;59.950;11.014;2023-01-19T14:05:43;98249.46;;;-0.99;87.82
62864;BME280;48954;59.950;11.014;2023-01-19T14:08:13;98251.88;;;-1.02;87.89
62864;BME280;48954;59.950;11.014;2023-01-19T14:10:46;98255.73;;;-1.06;87.91
62864;BME280;48954;59.950;11.014;2023-01-19T14:13:24;98257.35;;;-1.10;87.84
62864;BME280;48954;59.950;11.014;2023-01-19T14:15:52;98263.80;;;-1.12;87.54
62864;BME280;48954;59.950;11.014;2023-01-19T14:18:35;98266.11;;;-1.15;87.74
62864;BME280;48954;59.950;11.014;2023-01-19T14:21:13;98268.63;;;-1.18;87.87
62864;BME280;48954;59.950;11.014;2023-01-19T14:24:05;98272.66;;;-1.21;87.75
62864;BME280;48954;59.950;11.014;2023-01-19T14:29:33;98285.11;;;-1.28;87.77
62864;BME280;48954;59.950;11.014;2023-01-19T14:34:37;98288.52;;;-1.37;87.73
62864;BME280;48954;59.950;11.014;2023-01-19T14:37:21;98291.08;;;-1.41;87.67
62864;BME280;48954;59.950;11.014;2023-01-19T14:43:00;98301.10;;;-1.51;87.64
62864;BME280;48954;59.950;11.014;2023-01-19T14:45:30;98307.23;;;-1.55;88.14